Etusivu
METAR-TAF:

METAR-TAF

Lentoasemat :

Hangzhou Xiaoshanin kansainvälinen lentoasema

Hangzhou, Kiina

Leveyspiiri: 30-14N, Pituuspiiri: 120-10E, korkeus merenpinnasta: 43 m

Tämänhetkinen sää

Tämä raportti tehtiin 16 minuuttia sitten, kello 00.00 UTC
Tuuli 4 kn lännestä/lounaasta
Lämpötila 12°C
Kosteus 71%
Ilmanpaine 1016 hPa
Näkyvyys 10 km tai enemmän
Muutamia pilviä 2000 ft:n korkeudessa

METAR: ZSHC 080000Z 24002MPS 9999 FEW020 12/07 Q1016 NOSIG

Aika: 08:16 (00:16 UTC)

Sääennuste

Tämä raportti tehtiin 3 tuntia ja 13 minuuttia sitten, kello 21.03 UTC
Ennuste voimassa 08. päivästä klo 00 UTC - 08. päivään klo 24 UTC
Tuuli 6 kn etelästä/lounaasta
Näkyvyys: 3000 m
utua,

TAF: ZSHC 072103Z 0800/0824 21003MPS 3000 BR NSC TX24/0807Z TN10/0821Z

Säähavainnot ja -ennusteet yli 4000 lentoasemalta (METAR- ja TAF-raportit).

Käytössä olevat sääasemat on merkitty karttaan keltaisilla ja punaisilla pisteillä.

Aseta hiiri pisteen päälle nähdäksesi sääaseman nimen.

Klikkaa sitten nähdäksesi säähavainnot ja -ennusteet.

Kartan vaihtaminen: klikkaa mustalla rastilla varustettuja vihreitä pisteitä, niin voit zoomata sisään; viivalla varustettua vihreää pistettä, niin voit zoomata ulos tai vihreitä nuolia, niin pääset viereisille kartoille.


METAR-TAF: